createdAt,value
2022-08-05T00:01:28.560Z,101546.44
2022-08-05T00:03:57.142Z,101559.81
2022-08-05T00:06:30.725Z,101565.06
2022-08-05T00:09:00.772Z,101573.06
2022-08-05T00:11:34.489Z,101581.03
2022-08-05T00:14:12.860Z,101573.97
2022-08-05T00:16:52.670Z,101565.94
2022-08-05T00:19:22.470Z,101550.72
2022-08-05T00:21:49.273Z,101548.88
2022-08-05T00:24:16.127Z,101538.28
2022-08-05T00:26:51.765Z,101529.47
2022-08-05T00:29:18.937Z,101538.25
2022-08-05T00:32:11.039Z,101544.47
2022-08-05T00:35:03.513Z,101534.78
2022-08-05T00:37:35.725Z,101527.78
2022-08-05T00:40:17.873Z,101535.84
2022-08-05T00:42:55.085Z,101534.91
2022-08-05T00:45:28.143Z,101542.06
2022-08-05T00:48:07.004Z,101540.25
2022-08-05T00:50:34.088Z,101545.59
2022-08-05T00:53:00.635Z,101546.53
2022-08-05T00:55:42.506Z,101553.59
2022-08-05T00:58:12.215Z,101558.88
2022-08-05T01:00:40.570Z,101554.34
2022-08-05T01:03:08.613Z,101549.84
2022-08-05T01:05:36.352Z,101535.50
2022-08-05T01:08:40.698Z,101538.28
2022-08-05T01:10:58.032Z,101542.81
2022-08-05T01:13:57.997Z,101558.31
2022-08-05T01:16:38.990Z,101556.56
2022-08-05T01:19:56.106Z,101558.31
2022-08-05T01:22:47.175Z,101550.31
2022-08-05T01:25:40.704Z,101545.03
2022-08-05T01:28:31.683Z,101555.84
2022-08-05T01:31:26.182Z,101541.72
2022-08-05T01:34:15.129Z,101545.34
2022-08-05T01:37:05.722Z,101551.66
2022-08-05T01:39:36.846Z,101564.09
2022-08-05T01:42:15.221Z,101569.34
2022-08-05T01:44:44.102Z,101569.44
2022-08-05T01:47:16.416Z,101566.00
2022-08-05T01:50:01.373Z,101567.72
2022-08-05T01:52:31.631Z,101569.44
2022-08-05T01:55:04.606Z,101577.47
2022-08-05T01:58:11.159Z,101581.88
2022-08-05T02:00:30.288Z,101583.66
2022-08-05T02:03:06.533Z,101588.06
2022-08-05T02:05:50.397Z,101583.56
2022-08-05T02:08:31.290Z,101580.94
2022-08-05T02:11:07.361Z,101565.06
2022-08-05T02:13:53.100Z,101563.31
2022-08-05T02:16:28.213Z,101569.53
2022-08-05T02:19:18.695Z,101562.38
2022-08-05T02:21:51.079Z,101569.63
2022-08-05T02:24:23.132Z,101575.94
2022-08-05T02:26:56.820Z,101575.97
2022-08-05T02:29:59.174Z,101571.59
2022-08-05T02:32:23.775Z,101564.59
2022-08-05T02:34:55.068Z,101560.16
2022-08-05T02:37:23.162Z,101566.34
2022-08-05T02:39:51.748Z,101562.75
2022-08-05T02:42:27.618Z,101569.84
2022-08-05T02:45:00.126Z,101573.44
2022-08-05T02:47:58.420Z,101571.63
2022-08-05T02:50:18.704Z,101565.59
2022-08-05T02:52:46.621Z,101568.34
2022-08-05T02:55:14.302Z,101557.81
2022-08-05T02:58:12.235Z,101558.03
2022-08-05T03:00:38.531Z,101562.63
2022-08-05T03:03:10.184Z,101552.06
2022-08-05T03:06:56.161Z,101552.88
2022-08-05T03:08:29.737Z,101550.56
2022-08-05T03:11:53.288Z,101556.84
2022-08-05T03:13:51.769Z,101546.09
2022-08-05T03:16:29.430Z,101563.78
2022-08-05T03:18:56.942Z,101557.44
2022-08-05T03:21:24.517Z,101556.47
2022-08-05T03:23:55.819Z,101557.44
2022-08-05T03:26:30.980Z,101558.41
2022-08-05T03:28:59.127Z,101549.72
2022-08-05T03:31:55.901Z,101560.38
2022-08-05T03:34:13.156Z,101565.75
2022-08-05T03:39:08.230Z,101568.69
2022-08-05T03:41:46.673Z,101562.56
2022-08-05T03:44:13.530Z,101560.78
2022-08-05T03:46:46.496Z,101557.28
2022-08-05T03:49:12.885Z,101562.88
2022-08-05T03:52:38.331Z,101561.13
2022-08-05T03:55:50.219Z,101571.03
2022-08-05T03:57:45.859Z,101571.97
2022-08-05T04:00:16.179Z,101573.00
2022-08-05T04:02:52.262Z,101576.00
2022-08-05T04:05:33.914Z,101578.00
2022-08-05T04:08:14.865Z,101585.22
2022-08-05T04:10:55.408Z,101581.84
2022-08-05T04:13:21.862Z,101588.16
2022-08-05T04:16:03.272Z,101595.41
2022-08-05T04:18:32.183Z,101590.28
2022-08-05T04:21:01.802Z,101588.56
2022-08-05T04:23:57.234Z,101584.06
2022-08-05T04:26:17.389Z,101585.09
2022-08-05T04:28:51.034Z,101585.97
2022-08-05T04:31:21.382Z,101585.09
2022-08-05T04:34:19.125Z,101579.59
2022-08-05T04:36:44.930Z,101582.19
2022-08-05T04:39:13.448Z,101574.97
2022-08-05T04:41:39.945Z,101579.47
2022-08-05T04:44:09.034Z,101578.63
2022-08-05T04:46:37.015Z,101584.97
2022-08-05T04:49:03.565Z,101585.91
2022-08-05T04:51:30.556Z,101592.09
2022-08-05T04:53:57.171Z,101594.75
2022-08-05T04:56:34.964Z,101596.63
2022-08-05T04:59:13.835Z,101592.25
2022-08-05T05:02:07.078Z,101595.03
2022-08-05T05:04:36.313Z,101598.66
2022-08-05T05:07:04.783Z,101601.38
2022-08-05T05:09:37.465Z,101600.53
2022-08-05T05:12:07.586Z,101602.25
2022-08-05T05:14:36.264Z,101596.03
2022-08-05T05:17:03.347Z,101589.81
2022-08-05T05:19:36.591Z,101590.69
2022-08-05T05:22:24.238Z,101583.59
2022-08-05T05:24:58.005Z,101584.44
2022-08-05T05:27:41.684Z,101588.91
2022-08-05T05:30:31.558Z,101583.44
2022-08-05T05:33:08.815Z,101593.91
2022-08-05T05:35:44.031Z,101593.72
2022-08-05T05:38:13.368Z,101596.25
2022-08-05T05:40:48.055Z,101597.88
2022-08-05T05:43:21.833Z,101604.88
2022-08-05T05:45:54.503Z,101603.75
2022-08-05T05:48:27.634Z,101603.34
2022-08-05T05:50:54.397Z,101601.13
2022-08-05T05:53:22.763Z,101601.34
2022-08-05T05:55:51.605Z,101598.78
2022-08-05T05:58:31.792Z,101596.22
2022-08-05T06:01:12.248Z,101593.03
2022-08-05T06:04:00.684Z,101589.09
2022-08-05T06:06:31.053Z,101597.19
2022-08-05T06:08:59.783Z,101589.69
2022-08-05T06:11:26.394Z,101593.88
2022-08-05T06:13:55.951Z,101589.75
2022-08-05T06:16:28.320Z,101591.38
2022-08-05T06:18:57.531Z,101593.34
2022-08-05T06:21:35.702Z,101604.84
2022-08-05T06:24:03.013Z,101594.56
2022-08-05T06:26:31.832Z,101602.28
2022-08-05T06:29:06.033Z,101606.75
2022-08-05T06:31:47.906Z,101614.81
2022-08-05T06:34:17.141Z,101613.94
2022-08-05T06:36:57.050Z,101616.88
2022-08-05T06:39:27.747Z,101621.88
2022-08-05T06:41:56.151Z,101628.22
2022-08-05T06:44:25.130Z,101635.19
2022-08-05T06:46:52.658Z,101629.16
2022-08-05T06:49:21.389Z,101629.22
2022-08-05T06:52:07.417Z,101643.59
2022-08-05T06:54:33.910Z,101639.66
2022-08-05T06:57:13.876Z,101640.75
2022-08-05T06:59:57.899Z,101642.88
2022-08-05T07:02:24.699Z,101651.34
2022-08-05T07:04:51.281Z,101649.16
2022-08-05T07:07:24.059Z,101655.97
2022-08-05T07:10:03.536Z,101655.69
2022-08-05T07:12:49.009Z,101659.34
2022-08-05T07:16:00.911Z,101653.88
2022-08-05T07:18:29.176Z,101656.06
2022-08-05T07:20:57.058Z,101663.91
2022-08-05T07:23:26.118Z,101657.16
2022-08-05T07:25:55.159Z,101661.06
2022-08-05T07:28:23.010Z,101667.75
2022-08-05T07:30:52.789Z,101671.91
2022-08-05T07:33:21.437Z,101668.97
2022-08-05T07:36:21.322Z,101677.31
2022-08-05T07:38:49.115Z,101681.69
2022-08-05T07:42:12.939Z,101689.84
2022-08-05T07:44:19.124Z,101686.91
2022-08-05T07:46:52.152Z,101689.91
2022-08-05T07:49:20.518Z,101693.56
2022-08-05T07:51:54.641Z,101695.66
2022-08-05T07:54:30.271Z,101704.38
2022-08-05T07:57:01.604Z,101705.91
2022-08-05T07:59:41.532Z,101707.66
2022-08-05T08:02:16.608Z,101699.09
2022-08-05T08:04:48.352Z,101710.25
2022-08-05T08:07:22.490Z,101706.97
2022-08-05T08:09:52.609Z,101717.03
2022-08-05T08:12:35.056Z,101723.38
2022-08-05T08:15:05.114Z,101725.50
2022-08-05T08:17:40.813Z,101731.81
2022-08-05T08:20:42.795Z,101732.09
2022-08-05T08:23:07.402Z,101732.38
2022-08-05T08:26:00.435Z,101729.66
2022-08-05T08:28:35.403Z,101735.31
2022-08-05T08:31:04.431Z,101733.34
2022-08-05T08:33:37.557Z,101750.03
2022-08-05T08:36:40.105Z,101747.16
2022-08-05T08:38:55.464Z,101739.91
2022-08-05T08:41:26.234Z,101753.19
2022-08-05T08:45:19.498Z,101751.28
2022-08-05T08:46:57.842Z,101743.47
2022-08-05T08:50:07.725Z,101746.88
2022-08-05T08:52:14.455Z,101755.50
2022-08-05T08:54:43.357Z,101753.09
2022-08-05T08:57:13.365Z,101757.91
2022-08-05T08:59:41.912Z,101761.34
2022-08-05T09:02:14.535Z,101763.41
2022-08-05T09:04:58.401Z,101759.97
2022-08-05T09:07:39.862Z,101757.59
2022-08-05T09:10:18.790Z,101771.81
2022-08-05T09:12:50.976Z,101774.94
2022-08-05T09:15:19.944Z,101772.78
2022-08-05T09:17:49.717Z,101777.84
2022-08-05T09:20:36.709Z,101776.53
2022-08-05T09:23:05.581Z,101781.41
2022-08-05T09:26:02.755Z,101791.75
2022-08-05T09:28:32.449Z,101783.75
2022-08-05T09:31:44.173Z,101788.38
2022-08-05T09:34:01.278Z,101800.47
2022-08-05T09:36:59.803Z,101794.03
2022-08-05T09:39:39.562Z,101803.16
2022-08-05T09:42:13.558Z,101802.50
2022-08-05T09:44:53.779Z,101806.94
2022-08-05T09:47:26.149Z,101809.69
2022-08-05T09:50:01.729Z,101807.00
2022-08-05T09:52:34.907Z,101812.50
2022-08-05T09:55:55.518Z,101808.22
2022-08-05T09:57:54.347Z,101825.09
2022-08-05T10:00:24.700Z,101824.16
2022-08-05T10:02:58.723Z,101821.97
2022-08-05T10:05:27.738Z,101823.09
2022-08-05T10:08:35.778Z,101821.22
2022-08-05T10:10:53.841Z,101821.34
2022-08-05T10:13:47.728Z,101823.97
2022-08-05T10:16:41.870Z,101824.34
2022-08-05T10:19:23.660Z,101836.25
2022-08-05T10:22:29.984Z,101831.34
2022-08-05T10:24:56.877Z,101836.69
2022-08-05T10:27:26.136Z,101839.34
2022-08-05T10:31:20.620Z,101845.59
2022-08-05T10:33:01.746Z,101847.56
2022-08-05T10:35:33.757Z,101854.13
2022-08-05T10:38:08.479Z,101856.28
2022-08-05T10:40:58.626Z,101858.25
2022-08-05T10:43:35.853Z,101861.13
2022-08-05T10:46:08.684Z,101861.00
2022-08-05T10:48:52.691Z,101864.47
2022-08-05T10:51:29.405Z,101863.81
2022-08-05T10:54:05.898Z,101875.31
2022-08-05T10:56:53.077Z,101872.75
2022-08-05T11:00:03.224Z,101887.31
2022-08-05T11:02:34.706Z,101882.59
2022-08-05T11:05:05.906Z,101880.09
2022-08-05T11:08:04.619Z,101882.06
2022-08-05T11:10:27.487Z,101877.66
2022-08-05T11:12:55.917Z,101889.97
2022-08-05T11:16:00.663Z,101899.63
2022-08-05T11:18:32.202Z,101889.84
2022-08-05T11:20:59.937Z,101897.66
2022-08-05T11:23:33.558Z,101908.41
2022-08-05T11:26:28.281Z,101905.06
2022-08-05T11:29:05.170Z,101914.94
2022-08-05T11:31:58.744Z,101921.28
2022-08-05T11:34:37.944Z,101926.00
2022-08-05T11:38:14.287Z,101933.66
2022-08-05T11:40:00.661Z,101932.75
2022-08-05T11:42:38.096Z,101943.72
2022-08-05T11:45:26.803Z,101946.41
2022-08-05T11:47:55.145Z,101947.19
2022-08-05T11:50:22.319Z,101954.56
2022-08-05T11:52:51.078Z,101961.75
2022-08-05T11:55:19.662Z,101952.91
2022-08-05T11:58:10.969Z,101964.91
2022-08-05T12:00:38.236Z,101968.78
2022-08-05T12:03:28.610Z,101970.91
2022-08-05T12:06:01.618Z,101968.28
2022-08-05T12:08:28.592Z,101975.81
2022-08-05T12:11:05.547Z,101971.34
2022-08-05T12:13:48.490Z,101971.16
2022-08-05T12:16:25.390Z,101967.47
2022-08-05T12:18:54.073Z,101973.50
2022-08-05T12:21:26.861Z,101970.81
2022-08-05T12:24:11.214Z,101976.41
2022-08-05T12:26:38.890Z,101979.34
2022-08-05T12:29:09.339Z,101986.66
2022-08-05T12:31:47.657Z,101984.38
2022-08-05T12:34:21.262Z,101996.19
2022-08-05T12:36:50.066Z,101995.19
2022-08-05T12:39:17.596Z,101994.06
2022-08-05T12:41:45.287Z,102005.47
2022-08-05T12:44:21.618Z,102004.06
2022-08-05T12:47:02.667Z,102004.75
2022-08-05T12:50:03.895Z,101998.53
2022-08-05T12:52:37.740Z,102006.81
2022-08-05T12:55:17.077Z,102015.19
2022-08-05T12:58:50.017Z,102007.88
2022-08-05T13:02:02.358Z,102013.84
2022-08-05T13:03:17.895Z,102012.47
2022-08-05T13:05:48.110Z,102006.78
2022-08-05T13:08:21.550Z,102009.94
2022-08-05T13:11:01.992Z,102009.34
2022-08-05T13:14:05.885Z,102007.47
2022-08-05T13:16:17.097Z,102011.53
2022-08-05T13:18:57.773Z,102016.19
2022-08-05T13:21:28.191Z,102012.13
2022-08-05T13:24:04.874Z,102005.41
2022-08-05T13:26:31.281Z,102015.88
2022-08-05T13:28:59.015Z,102020.91
2022-08-05T13:32:03.826Z,102018.16
2022-08-05T13:34:22.502Z,102027.13
2022-08-05T13:36:52.082Z,102024.72
2022-08-05T13:40:13.140Z,102011.09
2022-08-05T13:42:05.067Z,102030.66
2022-08-05T13:44:32.477Z,102031.28
2022-08-05T13:47:01.546Z,102026.75
2022-08-05T13:49:30.187Z,102036.44
2022-08-05T13:52:18.472Z,102039.47
2022-08-05T13:54:53.386Z,102029.84
2022-08-05T13:57:20.832Z,102045.75
2022-08-05T13:59:57.107Z,102042.53
2022-08-05T14:02:26.475Z,102035.94
2022-08-05T14:05:11.976Z,102035.91
2022-08-05T14:08:01.041Z,102046.69
2022-08-05T14:10:31.853Z,102057.59
2022-08-05T14:12:58.812Z,102055.22
2022-08-05T14:16:07.404Z,102062.03
2022-08-05T14:18:17.608Z,102069.97
2022-08-05T14:20:52.900Z,102080.41
2022-08-05T14:23:24.871Z,102094.78
2022-08-05T14:25:58.833Z,102090.81
2022-08-05T14:28:30.092Z,102095.00
2022-08-05T14:31:01.404Z,102100.66
2022-08-05T14:33:57.034Z,102102.78
2022-08-05T14:36:14.802Z,102100.25
2022-08-05T14:38:41.556Z,102100.72
2022-08-05T14:41:08.024Z,102111.00
2022-08-05T14:43:39.240Z,102104.00
2022-08-05T14:46:29.590Z,102108.16
2022-08-05T14:48:59.717Z,102106.66
2022-08-05T14:51:33.474Z,102114.94
2022-08-05T14:54:25.832Z,102113.94
2022-08-05T14:56:47.263Z,102112.22
2022-08-05T14:59:15.179Z,102115.03
2022-08-05T15:01:48.871Z,102102.59
2022-08-05T15:04:17.571Z,102115.19
2022-08-05T15:06:49.129Z,102111.28
2022-08-05T15:09:17.144Z,102104.59
2022-08-05T15:12:04.140Z,102115.09
2022-08-05T15:14:36.009Z,102119.38
2022-08-05T15:17:45.043Z,102114.91
2022-08-05T15:20:00.802Z,102114.00
2022-08-05T15:22:28.340Z,102133.84
2022-08-05T15:24:57.681Z,102128.72
2022-08-05T15:27:25.510Z,102123.06
2022-08-05T15:29:52.989Z,102131.53
2022-08-05T15:32:27.385Z,102132.59
2022-08-05T15:34:56.859Z,102144.75
2022-08-05T15:38:33.918Z,102137.25
2022-08-05T15:40:59.655Z,102129.31
2022-08-05T15:43:09.232Z,102137.56
2022-08-05T15:45:47.388Z,102142.28
2022-08-05T15:48:22.496Z,102149.78
2022-08-05T15:50:48.910Z,102145.47
2022-08-05T15:53:18.861Z,102140.94
2022-08-05T15:56:02.706Z,102131.63
2022-08-05T15:58:35.802Z,102139.66
2022-08-05T16:01:16.352Z,102144.22
2022-08-05T16:03:48.372Z,102147.72
2022-08-05T16:06:19.851Z,102153.16
2022-08-05T16:08:55.256Z,102156.19
2022-08-05T16:11:42.797Z,102162.91
2022-08-05T16:14:09.053Z,102159.25
2022-08-05T16:16:36.244Z,102172.63
2022-08-05T16:19:03.539Z,102162.91
2022-08-05T16:22:00.560Z,102156.84
2022-08-05T16:24:40.994Z,102155.13
2022-08-05T16:27:07.183Z,102169.53
2022-08-05T16:29:37.334Z,102162.72
2022-08-05T16:32:06.357Z,102174.50
2022-08-05T16:34:34.315Z,102179.31
2022-08-05T16:37:00.715Z,102175.19
2022-08-05T16:40:04.709Z,102185.09
2022-08-05T16:42:18.562Z,102187.75
2022-08-05T16:44:54.280Z,102191.50
2022-08-05T16:47:28.703Z,102194.03
2022-08-05T16:50:04.300Z,102190.78
2022-08-05T16:52:33.567Z,102190.09
2022-08-05T16:55:02.616Z,102207.50
2022-08-05T16:57:53.193Z,102196.03
2022-08-05T17:00:26.269Z,102191.63
2022-08-05T17:03:03.015Z,102211.25
2022-08-05T17:05:30.795Z,102201.47
2022-08-05T17:07:59.970Z,102205.84
2022-08-05T17:10:26.503Z,102210.25
2022-08-05T17:12:57.770Z,102208.53
2022-08-05T17:15:24.579Z,102209.59
2022-08-05T17:18:07.412Z,102214.06
2022-08-05T17:20:40.807Z,102215.00
2022-08-05T17:23:07.708Z,102215.94
2022-08-05T17:25:39.951Z,102210.00
2022-08-05T17:28:07.813Z,102213.75
2022-08-05T17:30:50.328Z,102214.63
2022-08-05T17:33:18.408Z,102213.84
2022-08-05T17:36:09.075Z,102223.91
2022-08-05T17:38:32.847Z,102224.03
2022-08-05T17:40:59.610Z,102222.28
2022-08-05T17:43:47.013Z,102226.69
2022-08-05T17:46:12.597Z,102224.03
2022-08-05T17:48:40.028Z,102231.34
2022-08-05T17:51:09.771Z,102231.56
2022-08-05T17:53:36.344Z,102237.03
2022-08-05T17:56:04.559Z,102245.91
2022-08-05T17:58:32.543Z,102244.16
2022-08-05T18:00:59.383Z,102245.97
2022-08-05T18:03:56.498Z,102238.88
2022-08-05T18:06:15.150Z,102244.22
2022-08-05T18:08:46.083Z,102254.00
2022-08-05T18:11:24.113Z,102257.69
2022-08-05T18:13:59.952Z,102261.25
2022-08-05T18:16:26.540Z,102263.03
2022-08-05T18:18:53.037Z,102260.38
2022-08-05T18:21:22.810Z,102278.13
2022-08-05T18:23:53.829Z,102284.47
2022-08-05T18:26:21.675Z,102275.53
2022-08-05T18:28:54.911Z,102283.44
2022-08-05T18:31:23.437Z,102280.75
2022-08-05T18:33:52.934Z,102290.59
2022-08-05T18:36:27.829Z,102290.69
2022-08-05T18:38:55.737Z,102297.81
2022-08-05T18:41:56.591Z,102287.16
2022-08-05T18:44:10.982Z,102289.00
2022-08-05T18:46:40.985Z,102305.03
2022-08-05T18:49:30.465Z,102301.63
2022-08-05T18:52:17.431Z,102307.09
2022-08-05T18:55:00.235Z,102310.81
2022-08-05T18:57:26.669Z,102311.72
2022-08-05T19:00:20.198Z,102317.00
2022-08-05T19:02:48.591Z,102318.81
2022-08-05T19:06:11.067Z,102316.22
2022-08-05T19:08:06.911Z,102324.28
2022-08-05T19:10:40.594Z,102319.88
2022-08-05T19:13:07.135Z,102319.03
2022-08-05T19:15:58.138Z,102321.75
2022-08-05T19:18:26.810Z,102325.38
2022-08-05T19:20:54.068Z,102324.50
2022-08-05T19:24:07.209Z,102328.09
2022-08-05T19:26:18.191Z,102331.66
2022-08-05T19:28:45.412Z,102331.66
2022-08-05T19:31:17.977Z,102330.78
2022-08-05T19:33:48.655Z,102347.69
2022-08-05T19:36:24.787Z,102345.09
2022-08-05T19:38:51.272Z,102345.13
2022-08-05T19:41:17.710Z,102336.28
2022-08-05T19:44:06.226Z,102356.75
2022-08-05T19:46:39.330Z,102358.59
2022-08-05T19:49:06.968Z,102358.63
2022-08-05T19:52:09.395Z,102364.94
2022-08-05T19:54:26.619Z,102375.66
2022-08-05T19:57:02.425Z,102372.13
2022-08-05T19:59:59.533Z,102367.69
2022-08-05T20:02:30.341Z,102371.28
2022-08-05T20:04:58.823Z,102381.94
2022-08-05T20:07:47.529Z,102380.16
2022-08-05T20:10:14.234Z,102381.97
2022-08-05T20:12:47.696Z,102386.41
2022-08-05T20:15:48.836Z,102393.50
2022-08-05T20:18:10.469Z,102405.09
2022-08-05T20:20:55.223Z,102405.09
2022-08-05T20:23:24.122Z,102403.34
2022-08-05T20:26:15.260Z,102413.09
2022-08-05T20:28:44.114Z,102406.88
2022-08-05T20:31:11.184Z,102408.66
2022-08-05T20:33:42.613Z,102421.09
2022-08-05T20:36:10.164Z,102422.88
2022-08-05T20:38:37.985Z,102414.00
2022-08-05T20:41:08.235Z,102425.53
2022-08-05T20:43:59.904Z,102419.31
2022-08-05T20:46:25.184Z,102422.00
2022-08-05T20:48:51.972Z,102422.00
2022-08-05T20:51:18.411Z,102421.09
2022-08-05T20:53:56.215Z,102428.22
2022-08-05T20:56:28.674Z,102437.97
2022-08-05T20:59:04.060Z,102431.81
2022-08-05T21:01:39.132Z,102424.69
2022-08-05T21:04:07.244Z,102433.59
2022-08-05T21:06:37.238Z,102438.91
2022-08-05T21:09:07.179Z,102448.69
2022-08-05T21:12:07.463Z,102441.56
2022-08-05T21:14:20.137Z,102435.38
2022-08-05T21:16:46.559Z,102448.69
2022-08-05T21:19:13.134Z,102444.25
2022-08-05T21:21:50.540Z,102446.00
2022-08-05T21:24:19.506Z,102455.78
2022-08-05T21:26:58.104Z,102449.56
2022-08-05T21:29:26.650Z,102443.38
2022-08-05T21:31:58.774Z,102446.03
2022-08-05T21:34:25.217Z,102457.53
2022-08-05T21:36:54.747Z,102445.16
2022-08-05T21:39:26.707Z,102454.03
2022-08-05T21:42:01.911Z,102454.03
2022-08-05T21:44:29.838Z,102460.22
2022-08-05T21:46:57.996Z,102454.88
2022-08-05T21:49:58.883Z,102449.56
2022-08-05T21:52:21.625Z,102461.06
2022-08-05T21:54:54.929Z,102468.16
2022-08-05T21:57:31.423Z,102475.28
2022-08-05T22:00:10.830Z,102476.13
2022-08-05T22:02:38.788Z,102477.03
2022-08-05T22:05:06.085Z,102472.56
2022-08-05T22:07:40.329Z,102471.72
2022-08-05T22:10:26.617Z,102463.72
2022-08-05T22:12:54.541Z,102469.91
2022-08-05T22:16:01.397Z,102477.91
2022-08-05T22:18:11.148Z,102472.59
2022-08-05T22:20:39.189Z,102475.22
2022-08-05T22:23:25.354Z,102467.25
2022-08-05T22:26:30.178Z,102472.53
2022-08-05T22:28:56.636Z,102476.09
2022-08-05T22:31:23.058Z,102482.31
2022-08-05T22:33:55.578Z,102485.88
2022-08-05T22:36:25.040Z,102480.53
2022-08-05T22:38:51.823Z,102485.84
2022-08-05T22:42:04.266Z,102482.28
2022-08-05T22:44:08.281Z,102484.06
2022-08-05T22:46:40.168Z,102477.84
2022-08-05T22:49:12.000Z,102487.53
2022-08-05T22:52:04.910Z,102499.03
2022-08-05T22:54:25.946Z,102493.69
2022-08-05T22:56:54.240Z,102494.56
2022-08-05T22:59:46.387Z,102499.84
2022-08-05T23:02:08.350Z,102501.59
2022-08-05T23:04:35.492Z,102500.72
2022-08-05T23:07:02.458Z,102497.16
2022-08-05T23:09:53.262Z,102499.81
2022-08-05T23:12:17.703Z,102501.59
2022-08-05T23:14:44.388Z,102504.22
2022-08-05T23:17:35.106Z,102506.88
2022-08-05T23:20:16.453Z,102513.00
2022-08-05T23:22:47.707Z,102512.09
2022-08-05T23:25:52.763Z,102518.28
2022-08-05T23:28:06.985Z,102520.81
2022-08-05T23:30:39.706Z,102527.84
2022-08-05T23:33:07.380Z,102527.81
2022-08-05T23:35:48.317Z,102529.56
2022-08-05T23:38:16.069Z,102531.34
2022-08-05T23:40:49.747Z,102540.19
2022-08-05T23:43:24.885Z,102538.38
2022-08-05T23:46:04.991Z,102543.66
2022-08-05T23:48:47.178Z,102536.53
2022-08-05T23:51:28.119Z,102538.25
2022-08-05T23:54:01.227Z,102545.31
2022-08-05T23:56:27.805Z,102547.97
2022-08-05T23:58:54.199Z,102549.72
